Time;durP1;ratioP1;P1;durP2;ratioP2;P2;SDS_P1;SDS_P2;PMS_P1;PMS_P2;Temp;Humidity;BMP_temperature;BMP_pressure;BME280_temperature;BME280_humidity;BME280_pressure;Samples;Min_cycle;Max_cycle;Signal;HPM_P1;HPM_P2
2021/01/13 00:01:59;;;;;;;15.55;6.80;;;0.70;99.90;;;;;;5043159;28;20041;-80
2021/01/13 00:04:24;;;;;;;17.60;6.88;;;0.70;99.90;;;;;;5042434;28;20037;-80
2021/01/13 00:06:50;;;;;;;23.15;6.93;;;0.80;99.90;;;;;;5042432;28;20040;-80
2021/01/13 00:09:16;;;;;;;20.60;7.38;;;0.80;99.90;;;;;;5041375;28;20052;-80
2021/01/13 00:11:41;;;;;;;15.80;7.78;;;1.00;99.90;;;;;;5041327;28;20087;-80
2021/01/13 00:14:08;;;;;;;15.45;5.88;;;1.10;99.90;;;;;;5041191;28;20036;-80
2021/01/13 00:16:33;;;;;;;23.02;7.03;;;1.30;99.90;;;;;;5041112;28;20029;-80
2021/01/13 00:18:59;;;;;;;19.88;6.75;;;1.40;99.90;;;;;;5043617;28;20036;-81
2021/01/13 00:21:24;;;;;;;24.05;6.45;;;1.40;99.90;;;;;;5042102;28;20064;-80
2021/01/13 00:23:50;;;;;;;19.15;6.57;;;1.40;99.90;;;;;;5038369;28;20094;-80
2021/01/13 00:26:23;;;;;;;13.85;5.88;;;1.40;99.90;;;;;;5041904;28;20051;-80
2021/01/13 00:28:52;;;;;;;17.63;5.55;;;1.40;99.90;;;;;;5041345;28;20037;-80
2021/01/13 00:31:18;;;;;;;12.38;5.70;;;1.40;99.90;;;;;;5041402;28;20029;-80
2021/01/13 00:33:47;;;;;;;20.38;5.13;;;1.50;99.90;;;;;;5041753;28;20140;-80
2021/01/13 00:36:24;;;;;;;13.93;5.63;;;1.40;99.90;;;;;;5041617;28;20044;-79
2021/01/13 00:38:51;;;;;;;12.65;4.45;;;1.40;99.90;;;;;;5042546;28;20124;-79
2021/01/13 00:41:17;;;;;;;13.52;4.47;;;1.40;99.90;;;;;;5042226;28;20044;-79
2021/01/13 00:43:43;;;;;;;14.98;4.57;;;1.50;99.90;;;;;;5039865;28;20043;-80
2021/01/13 00:46:09;;;;;;;17.67;5.00;;;1.60;99.90;;;;;;5040980;28;20040;-79
2021/01/13 00:48:35;;;;;;;22.25;5.18;;;1.70;99.90;;;;;;5039164;28;20374;-79
2021/01/13 00:51:01;;;;;;;10.00;4.80;;;1.70;99.90;;;;;;5038563;28;20033;-79
2021/01/13 00:53:26;;;;;;;11.25;4.35;;;1.70;99.90;;;;;;5040572;28;20725;-79
2021/01/13 00:55:52;;;;;;;13.32;3.75;;;1.80;99.90;;;;;;5040551;28;20041;-78
2021/01/13 00:58:17;;;;;;;6.00;3.55;;;1.80;99.90;;;;;;5040688;28;20041;-78
2021/01/13 01:00:43;;;;;;;15.30;3.83;;;1.80;99.90;;;;;;5041165;28;20041;-78
2021/01/13 01:03:09;;;;;;;7.15;3.38;;;1.80;99.90;;;;;;5040266;28;20063;-78
2021/01/13 01:05:34;;;;;;;17.55;3.78;;;1.90;99.90;;;;;;5038425;28;20114;-78
2021/01/13 01:08:00;;;;;;;9.95;3.78;;;1.90;99.90;;;;;;5044536;28;20076;-78
2021/01/13 01:10:31;;;;;;;13.38;3.33;;;1.90;99.90;;;;;;5045789;28;20033;-78
2021/01/13 01:12:56;;;;;;;12.20;3.30;;;1.90;99.90;;;;;;5040191;28;20078;-78
2021/01/13 01:15:22;;;;;;;11.23;2.70;;;2.00;99.90;;;;;;5039809;28;20513;-79
2021/01/13 01:17:48;;;;;;;7.20;2.95;;;2.10;99.90;;;;;;5041011;28;20083;-79
2021/01/13 01:20:15;;;;;;;7.80;3.28;;;2.20;99.90;;;;;;5056754;28;20639;-79
2021/01/13 01:22:53;;;;;;;6.40;2.65;;;2.20;99.90;;;;;;5037071;28;20033;-79
2021/01/13 01:25:20;;;;;;;4.70;2.58;;;2.10;99.90;;;;;;5042090;28;20041;-79
2021/01/13 01:27:50;;;;;;;4.80;2.28;;;2.10;99.90;;;;;;5040879;28;20735;-79
2021/01/13 01:30:16;;;;;;;15.75;2.80;;;2.10;99.90;;;;;;5040497;28;20123;-79
2021/01/13 01:32:42;;;;;;;6.05;2.63;;;2.10;99.90;;;;;;5056723;28;20108;-79
2021/01/13 01:35:08;;;;;;;6.57;2.47;;;2.10;99.90;;;;;;5039361;28;20623;-79
2021/01/13 01:37:35;;;;;;;6.72;2.58;;;2.10;99.90;;;;;;5037562;28;20044;-80
2021/01/13 01:40:03;;;;;;;7.75;3.10;;;2.00;99.90;;;;;;5039580;28;20033;-79
2021/01/13 01:42:28;;;;;;;12.50;3.83;;;2.00;99.90;;;;;;5038813;28;20096;-79
2021/01/13 01:44:55;;;;;;;6.85;2.47;;;2.00;99.90;;;;;;5036086;28;20047;-79
2021/01/13 01:47:54;;;;;;;6.95;3.13;;;2.00;99.90;;;;;;5040344;28;20040;-79
2021/01/13 01:50:22;;;;;;;9.82;3.45;;;2.00;99.90;;;;;;5043553;28;20502;-79
2021/01/13 01:52:52;;;;;;;5.53;2.65;;;2.00;99.90;;;;;;5042391;28;20036;-78
2021/01/13 01:55:23;;;;;;;11.10;2.47;;;2.00;99.90;;;;;;5043252;28;20044;-79
2021/01/13 01:57:57;;;;;;;8.02;2.85;;;2.00;99.90;;;;;;5045915;28;20029;-79
2021/01/13 02:00:30;;;;;;;7.78;2.63;;;2.00;99.90;;;;;;5043526;28;20041;-79
2021/01/13 02:03:06;;;;;;;6.32;3.03;;;2.00;99.90;;;;;;5034381;28;20051;-79
2021/01/13 02:05:34;;;;;;;11.60;2.50;;;2.00;99.90;;;;;;5035876;28;20039;-79
2021/01/13 02:08:02;;;;;;;10.30;2.50;;;2.00;99.90;;;;;;5044560;28;20029;-78
2021/01/13 02:10:28;;;;;;;8.00;2.50;;;2.00;99.90;;;;;;5042545;28;20218;-79
2021/01/13 02:13:06;;;;;;;5.68;2.53;;;2.00;99.90;;;;;;5044221;28;20624;-78
2021/01/13 02:15:32;;;;;;;12.27;2.80;;;2.10;99.90;;;;;;5042589;28;20166;-78
2021/01/13 02:18:02;;;;;;;12.07;3.42;;;2.10;99.90;;;;;;5043762;28;20112;-79
2021/01/13 02:20:30;;;;;;;7.78;2.50;;;2.10;99.90;;;;;;5042240;28;20021;-78
2021/01/13 02:23:04;;;;;;;11.15;2.55;;;2.10;99.90;;;;;;5038746;28;20106;-79
2021/01/13 02:26:05;;;;;;;9.38;2.70;;;2.00;99.90;;;;;;5038238;28;20938;-79
2021/01/13 02:28:37;;;;;;;11.35;2.70;;;2.00;99.90;;;;;;5040600;28;20037;-79
2021/01/13 02:31:02;;;;;;;7.88;2.45;;;2.10;99.90;;;;;;5038901;28;20037;-78
2021/01/13 02:33:50;;;;;;;11.98;2.35;;;2.00;99.90;;;;;;5040294;28;20095;-79
2021/01/13 02:36:19;;;;;;;6.47;2.10;;;2.00;99.90;;;;;;5040271;28;20045;-78
2021/01/13 02:38:50;;;;;;;4.85;2.17;;;2.10;99.90;;;;;;5040282;28;20044;-79
2021/01/13 02:41:19;;;;;;;11.93;2.60;;;2.10;99.90;;;;;;5039159;28;20041;-79
2021/01/13 02:43:56;;;;;;;7.20;1.85;;;2.10;99.90;;;;;;5042259;28;20052;-79
2021/01/13 02:46:56;;;;;;;6.45;2.17;;;2.10;99.90;;;;;;5029669;28;20041;-79
2021/01/13 02:50:17;;;;;;;8.95;2.25;;;2.10;99.90;;;;;;5042084;28;20045;-79
2021/01/13 02:53:05;;;;;;;9.55;2.53;;;2.10;99.90;;;;;;5043565;28;20098;-78
2021/01/13 02:55:55;;;;;;;13.63;2.22;;;2.10;99.90;;;;;;5043344;28;20443;-79
2021/01/13 02:58:31;;;;;;;6.00;2.08;;;2.10;99.90;;;;;;5030493;28;20702;-79
2021/01/13 03:00:58;;;;;;;10.07;2.55;;;2.10;99.90;;;;;;5057444;28;20041;-78
2021/01/13 03:03:24;;;;;;;13.05;2.53;;;2.10;99.90;;;;;;5042586;28;20047;-78
2021/01/13 03:05:50;;;;;;;11.48;2.10;;;2.10;99.90;;;;;;5043723;28;20033;-78
2021/01/13 03:08:16;;;;;;;11.88;2.40;;;2.10;99.90;;;;;;5043280;28;20095;-79
2021/01/13 03:10:45;;;;;;;8.13;2.05;;;2.10;99.90;;;;;;5042856;28;20087;-78
2021/01/13 03:13:11;;;;;;;5.55;2.33;;;2.10;99.90;;;;;;5043157;28;20043;-78
2021/01/13 03:15:38;;;;;;;8.68;1.98;;;2.10;99.90;;;;;;5033490;28;20037;-78
2021/01/13 03:18:10;;;;;;;9.88;2.22;;;2.20;99.90;;;;;;5042885;28;20689;-78
2021/01/13 03:21:00;;;;;;;4.68;2.20;;;2.20;99.90;;;;;;5043567;28;20036;-79
2021/01/13 03:23:39;;;;;;;7.85;2.30;;;2.20;99.90;;;;;;5041471;28;20043;-78
2021/01/13 03:26:07;;;;;;;12.50;2.65;;;2.20;99.90;;;;;;5039812;28;20037;-78
2021/01/13 03:28:36;;;;;;;8.38;2.75;;;2.10;99.90;;;;;;5041537;28;20041;-78
2021/01/13 03:31:03;;;;;;;5.60;2.00;;;2.10;99.90;;;;;;5040288;28;20029;-78
2021/01/13 03:34:06;;;;;;;14.00;2.70;;;2.10;99.90;;;;;;5039590;28;20110;-78
2021/01/13 03:36:48;;;;;;;8.68;2.30;;;2.10;99.90;;;;;;5039190;28;20045;-78
2021/01/13 03:39:20;;;;;;;8.27;2.42;;;2.00;99.90;;;;;;5040666;28;20145;-78
2021/01/13 03:41:54;;;;;;;12.98;2.15;;;2.00;99.90;;;;;;5040422;28;20041;-78
2021/01/13 03:44:33;;;;;;;8.55;2.00;;;2.00;99.90;;;;;;5039292;28;20511;-79
2021/01/13 03:47:40;;;;;;;6.68;2.67;;;2.00;99.90;;;;;;5038599;28;20107;-78
2021/01/13 03:50:42;;;;;;;9.82;2.72;;;1.90;99.90;;;;;;5027225;28;20087;-79
2021/01/13 03:53:13;;;;;;;5.97;2.40;;;1.90;99.90;;;;;;5038068;28;20585;-79
2021/01/13 03:55:40;;;;;;;11.00;2.42;;;1.90;99.90;;;;;;5037807;28;20124;-79
2021/01/13 03:58:09;;;;;;;7.70;2.30;;;1.80;99.90;;;;;;5038508;28;20037;-78
2021/01/13 04:00:53;;;;;;;11.30;3.33;;;1.80;99.90;;;;;;5039655;28;20025;-79
2021/01/13 04:03:18;;;;;;;5.70;2.20;;;1.70;99.90;;;;;;5040046;28;20041;-79
2021/01/13 04:06:10;;;;;;;6.97;2.47;;;1.70;99.90;;;;;;5039986;28;20047;-79
2021/01/13 04:08:46;;;;;;;4.07;1.95;;;1.70;99.90;;;;;;5039156;28;20397;-79
2021/01/13 04:11:14;;;;;;;10.25;2.35;;;1.60;99.90;;;;;;5057408;28;20591;-79
2021/01/13 04:13:51;;;;;;;11.68;2.50;;;1.60;99.90;;;;;;5039399;28;20406;-78
2021/01/13 04:16:21;;;;;;;8.60;2.50;;;1.50;99.90;;;;;;5034937;28;20045;-79
2021/01/13 04:18:50;;;;;;;11.23;2.67;;;1.40;99.90;;;;;;5041697;28;20052;-78
2021/01/13 04:21:21;;;;;;;13.07;2.95;;;1.40;99.90;;;;;;5032779;28;20044;-78
2021/01/13 04:23:47;;;;;;;9.43;2.40;;;1.30;99.90;;;;;;5039455;28;20158;-79
2021/01/13 04:26:13;;;;;;;9.88;2.53;;;1.30;99.90;;;;;;5042357;28;20040;-79
2021/01/13 04:28:41;;;;;;;7.80;2.30;;;1.30;99.90;;;;;;5034696;28;20635;-81
2021/01/13 04:31:07;;;;;;;7.22;2.53;;;1.30;99.90;;;;;;5041720;28;20033;-79
2021/01/13 04:33:33;;;;;;;17.65;3.97;;;1.20;99.90;;;;;;5043676;28;20094;-79
2021/01/13 04:35:59;;;;;;;9.20;2.33;;;1.20;99.90;;;;;;5041637;28;20509;-79
2021/01/13 04:38:30;;;;;;;11.05;2.38;;;1.30;99.90;;;;;;5032179;28;20044;-80
2021/01/13 04:41:05;;;;;;;6.53;2.92;;;1.20;99.90;;;;;;5038378;28;20710;-79
2021/01/13 04:43:39;;;;;;;9.88;2.60;;;1.20;99.90;;;;;;5037100;28;20041;-79
2021/01/13 04:46:14;;;;;;;11.40;2.65;;;1.20;99.90;;;;;;5039064;28;20124;-79
2021/01/13 04:48:48;;;;;;;4.95;2.25;;;1.20;99.90;;;;;;5041691;28;20412;-79
2021/01/13 04:51:15;;;;;;;10.83;2.73;;;1.10;99.90;;;;;;5056225;28;20537;-79
2021/01/13 04:53:46;;;;;;;10.55;3.20;;;1.10;99.90;;;;;;5038270;28;20350;-79
2021/01/13 04:56:14;;;;;;;7.95;2.88;;;1.00;99.90;;;;;;5031401;28;20045;-79
2021/01/13 04:59:04;;;;;;;13.73;2.72;;;1.00;99.90;;;;;;5038560;28;20076;-79
2021/01/13 05:01:48;;;;;;;18.83;3.22;;;1.00;99.90;;;;;;5039504;28;20045;-79
2021/01/13 05:04:46;;;;;;;9.60;3.20;;;1.00;99.90;;;;;;5037315;28;20040;-80
2021/01/13 05:07:40;;;;;;;7.40;2.88;;;1.00;99.90;;;;;;5038459;28;20037;-79
2021/01/13 05:10:07;;;;;;;17.13;3.25;;;1.00;99.90;;;;;;5041238;28;20120;-79
2021/01/13 05:12:58;;;;;;;19.45;3.25;;;1.00;99.90;;;;;;5038945;28;20119;-79
2021/01/13 05:15:31;;;;;;;14.15;2.97;;;1.00;99.90;;;;;;5037310;28;20074;-79
2021/01/13 05:18:03;;;;;;;11.13;3.73;;;1.00;99.90;;;;;;5041372;28;20152;-79
2021/01/13 05:20:31;;;;;;;11.10;3.65;;;1.10;99.90;;;;;;5038911;28;20033;-79
2021/01/13 05:22:57;;;;;;;6.88;3.35;;;1.00;99.90;;;;;;5040089;28;20591;-79
2021/01/13 05:25:40;;;;;;;14.32;3.15;;;1.10;99.90;;;;;;5039204;28;20040;-80
2021/01/13 05:28:11;;;;;;;6.85;2.90;;;1.10;99.90;;;;;;5040233;28;20033;-77
2021/01/13 05:30:40;;;;;;;12.45;3.15;;;1.10;99.90;;;;;;5038739;28;20513;-78
2021/01/13 05:33:12;;;;;;;23.15;3.53;;;1.10;99.90;;;;;;5038498;28;20128;-78
2021/01/13 05:35:44;;;;;;;12.18;3.35;;;1.10;99.90;;;;;;5040866;28;20051;-78
2021/01/13 05:38:13;;;;;;;17.25;4.20;;;1.10;99.90;;;;;;5037618;28;20041;-78
2021/01/13 05:40:50;;;;;;;7.47;3.53;;;1.10;99.90;;;;;;5039975;28;20034;-77
2021/01/13 05:43:18;;;;;;;15.50;3.40;;;1.10;99.90;;;;;;5037093;28;20146;-78
2021/01/13 05:45:44;;;;;;;10.73;3.13;;;1.20;99.90;;;;;;5037538;28;20036;-78
2021/01/13 05:48:15;;;;;;;10.05;2.97;;;1.20;99.90;;;;;;5042076;28;20042;-78
2021/01/13 05:50:42;;;;;;;5.38;2.75;;;1.20;99.90;;;;;;5038041;28;20124;-80
2021/01/13 05:53:09;;;;;;;10.88;3.08;;;1.20;99.90;;;;;;5041888;28;20076;-80
2021/01/13 05:55:35;;;;;;;12.15;3.00;;;1.20;99.90;;;;;;5040361;28;20516;-79
2021/01/13 05:58:02;;;;;;;14.27;3.08;;;1.10;99.90;;;;;;5041181;28;20037;-79
2021/01/13 06:00:30;;;;;;;7.95;2.88;;;1.10;99.90;;;;;;5040990;28;20086;-78
2021/01/13 06:03:01;;;;;;;8.80;2.80;;;1.00;99.90;;;;;;5037197;28;20497;-78
2021/01/13 06:05:29;;;;;;;9.57;3.00;;;1.00;99.90;;;;;;5041050;28;20049;-78
2021/01/13 06:07:57;;;;;;;11.80;3.22;;;1.00;99.90;;;;;;5033624;28;20029;-78
2021/01/13 06:10:27;;;;;;;8.65;3.10;;;0.90;99.90;;;;;;5036401;28;20037;-79
2021/01/13 06:12:56;;;;;;;17.73;4.18;;;0.80;99.90;;;;;;5056371;28;20040;-78
2021/01/13 06:15:23;;;;;;;7.38;3.13;;;0.80;99.90;;;;;;5031475;28;20583;-79
2021/01/13 06:17:51;;;;;;;10.00;3.50;;;0.80;99.90;;;;;;5040026;28;20025;-81
2021/01/13 06:20:22;;;;;;;7.20;3.20;;;0.80;99.90;;;;;;5035685;28;20540;-78
2021/01/13 06:22:49;;;;;;;12.13;3.03;;;0.70;99.90;;;;;;5037796;28;20513;-78
2021/01/13 06:25:28;;;;;;;11.48;3.30;;;0.70;99.90;;;;;;5051146;28;20553;-78
2021/01/13 06:27:56;;;;;;;9.38;3.05;;;0.70;99.90;;;;;;5031325;28;20134;-79
2021/01/13 06:30:27;;;;;;;5.53;3.13;;;0.70;99.90;;;;;;5029782;28;20151;-78
2021/01/13 06:33:01;;;;;;;10.82;3.33;;;0.60;99.90;;;;;;5027631;28;20037;-77
2021/01/13 06:35:55;;;;;;;18.92;4.78;;;0.60;99.90;;;;;;5028460;28;20127;-76
2021/01/13 06:38:38;;;;;;;10.47;4.03;;;0.70;99.90;;;;;;5038422;28;20037;-77
2021/01/13 06:41:04;;;;;;;15.77;4.22;;;0.80;99.90;;;;;;5041391;28;20029;-78
2021/01/13 06:43:30;;;;;;;12.00;4.35;;;0.90;99.90;;;;;;5041949;28;20029;-78
2021/01/13 06:45:56;;;;;;;18.05;4.10;;;1.00;99.90;;;;;;5034116;28;20037;-77
2021/01/13 06:48:23;;;;;;;12.40;3.85;;;0.90;99.90;;;;;;5032838;28;20033;-77
2021/01/13 06:50:56;;;;;;;11.73;3.78;;;0.90;99.90;;;;;;5032462;28;20044;-77
2021/01/13 06:53:22;;;;;;;14.20;4.43;;;0.90;99.90;;;;;;5033527;28;20045;-79
2021/01/13 06:55:48;;;;;;;9.82;4.47;;;1.00;99.90;;;;;;5033110;28;20068;-77
2021/01/13 06:58:18;;;;;;;13.18;4.10;;;0.90;99.90;;;;;;5031365;28;20369;-77
2021/01/13 07:00:46;;;;;;;12.00;3.83;;;0.90;99.90;;;;;;5033726;28;20040;-77
2021/01/13 07:03:29;;;;;;;17.80;3.90;;;0.80;99.90;;;;;;5034970;28;20061;-77
2021/01/13 07:06:15;;;;;;;12.30;4.25;;;0.70;99.90;;;;;;5033012;28;20401;-81
2021/01/13 07:08:40;;;;;;;15.73;4.22;;;0.70;99.90;;;;;;5036031;28;20123;-77
2021/01/13 07:11:09;;;;;;;16.05;4.97;;;0.60;99.90;;;;;;5044784;28;20141;-78
2021/01/13 07:13:38;;;;;;;7.75;3.90;;;0.60;99.90;;;;;;5043993;28;20033;-76
2021/01/13 07:16:05;;;;;;;21.77;4.88;;;0.50;99.90;;;;;;5042407;28;20102;-76
2021/01/13 07:18:32;;;;;;;9.70;3.63;;;0.50;99.90;;;;;;5045430;28;20032;-78
2021/01/13 07:21:06;;;;;;;19.48;4.55;;;0.50;99.90;;;;;;5043072;28;20041;-77
2021/01/13 07:23:32;;;;;;;18.50;4.77;;;0.40;99.90;;;;;;5043579;28;20411;-79
2021/01/13 07:25:59;;;;;;;26.00;5.45;;;0.50;99.90;;;;;;5038729;28;20048;-79
2021/01/13 07:28:25;;;;;;;15.60;4.85;;;0.50;99.90;;;;;;5043133;28;20061;-78
2021/01/13 07:30:53;;;;;;;9.35;4.80;;;0.40;99.90;;;;;;5044385;28;20037;-76
2021/01/13 07:33:19;;;;;;;13.48;4.88;;;0.40;99.90;;;;;;5039296;28;20095;-78
2021/01/13 07:35:48;;;;;;;20.42;5.10;;;0.40;99.90;;;;;;5039289;28;20052;-77
2021/01/13 07:38:18;;;;;;;15.75;4.60;;;0.40;99.90;;;;;;5040250;28;20029;-78
2021/01/13 07:41:03;;;;;;;18.27;5.72;;;0.40;99.90;;;;;;5043184;28;20646;-80
2021/01/13 07:43:38;;;;;;;15.68;4.70;;;0.40;99.90;;;;;;5030370;28;20234;-79
2021/01/13 07:46:15;;;;;;;15.15;5.50;;;0.40;99.90;;;;;;5040634;28;20120;-78
2021/01/13 07:49:19;;;;;;;13.77;4.78;;;0.50;99.90;;;;;;5041481;28;20508;-79
2021/01/13 07:51:54;;;;;;;9.57;4.82;;;0.50;99.90;;;;;;5042390;28;20041;-79
2021/01/13 07:54:33;;;;;;;14.85;5.00;;;0.50;99.90;;;;;;5042545;28;20132;-78
2021/01/13 07:57:02;;;;;;;16.50;4.28;;;0.50;99.90;;;;;;5043531;28;20120;-78
2021/01/13 07:59:45;;;;;;;8.60;4.22;;;0.60;99.90;;;;;;5041790;28;20076;-77
2021/01/13 08:02:25;;;;;;;12.00;4.30;;;0.60;99.90;;;;;;5041067;28;20032;-79
2021/01/13 08:05:12;;;;;;;14.05;5.22;;;0.60;99.90;;;;;;5034405;28;20037;-78
2021/01/13 08:07:39;;;;;;;22.75;4.97;;;0.70;99.90;;;;;;5039885;28;20056;-78
2021/01/13 08:10:06;;;;;;;8.35;4.20;;;0.80;99.90;;;;;;5041607;28;20371;-77
2021/01/13 08:13:10;;;;;;;17.98;3.83;;;0.90;99.90;;;;;;5055889;28;20033;-78
2021/01/13 08:15:47;;;;;;;10.35;4.18;;;1.00;99.90;;;;;;5001563;28;20025;-78
2021/01/13 08:19:13;;;;;;;8.10;3.42;;;1.00;99.90;;;;;;5037401;28;20517;-79
2021/01/13 08:22:01;;;;;;;9.88;3.55;;;1.20;99.90;;;;;;5033313;28;20107;-79
2021/01/13 08:24:34;;;;;;;17.75;3.10;;;1.40;99.90;;;;;;5034711;28;20150;-77
2021/01/13 08:27:01;;;;;;;17.52;3.72;;;1.50;99.90;;;;;;5042439;28;20567;-78
2021/01/13 08:29:34;;;;;;;15.95;3.83;;;1.60;99.90;;;;;;5043631;28;20064;-77
2021/01/13 08:32:10;;;;;;;9.57;3.60;;;1.60;99.90;;;;;;5043247;28;20445;-78
2021/01/13 08:34:40;;;;;;;16.55;3.78;;;1.70;99.90;;;;;;5040076;28;20037;-78
2021/01/13 08:37:07;;;;;;;7.20;3.45;;;1.70;99.90;;;;;;5038304;28;20037;-77
2021/01/13 08:39:34;;;;;;;9.02;4.13;;;1.70;99.90;;;;;;5037903;28;20536;-78
2021/01/13 08:42:21;;;;;;;14.73;4.13;;;1.80;99.90;;;;;;5034385;28;20037;-77
2021/01/13 08:44:47;;;;;;;16.80;3.85;;;1.90;99.90;;;;;;5037669;28;20069;-78
2021/01/13 08:47:13;;;;;;;19.05;4.60;;;1.90;99.90;;;;;;5057544;28;20042;-78
2021/01/13 08:49:39;;;;;;;11.07;4.75;;;1.90;99.90;;;;;;5039633;28;20037;-78
2021/01/13 08:52:24;;;;;;;9.82;3.75;;;1.90;99.90;;;;;;5040279;28;20048;-79
2021/01/13 08:54:56;;;;;;;20.02;4.38;;;2.10;99.90;;;;;;5039883;28;19920;-78
2021/01/13 08:57:23;;;;;;;18.73;4.60;;;2.10;99.90;;;;;;5041246;28;20033;-78
2021/01/13 08:59:49;;;;;;;18.55;5.07;;;2.10;99.90;;;;;;5037879;28;20055;-80
2021/01/13 09:02:17;;;;;;;9.60;4.00;;;2.20;99.90;;;;;;5045781;28;20102;-79
2021/01/13 09:04:55;;;;;;;17.13;3.72;;;2.20;99.90;;;;;;5037545;28;20037;-79
2021/01/13 09:07:25;;;;;;;8.32;3.15;;;2.20;99.90;;;;;;5038779;28;20116;-79
2021/01/13 09:10:11;;;;;;;9.40;3.88;;;2.20;99.90;;;;;;5037456;28;20493;-80
2021/01/13 09:12:44;;;;;;;17.98;3.67;;;2.30;99.90;;;;;;5040568;28;20127;-79
2021/01/13 09:15:15;;;;;;;9.80;3.33;;;2.40;99.90;;;;;;5037185;28;20029;-78
2021/01/13 09:17:56;;;;;;;10.82;4.18;;;2.40;99.90;;;;;;5040579;28;20528;-78
2021/01/13 09:20:26;;;;;;;14.98;3.75;;;2.50;99.90;;;;;;5039815;28;20036;-78
2021/01/13 09:23:03;;;;;;;11.63;3.63;;;2.60;99.90;;;;;;5036015;28;20029;-78
2021/01/13 09:25:31;;;;;;;7.55;2.90;;;2.80;99.90;;;;;;5030069;28;20041;-78
2021/01/13 09:28:02;;;;;;;7.25;3.28;;;2.70;99.90;;;;;;5041071;28;20041;-79
2021/01/13 09:30:41;;;;;;;9.48;2.88;;;2.70;99.90;;;;;;5039770;28;20040;-78
2021/01/13 09:33:08;;;;;;;16.77;3.05;;;2.70;99.90;;;;;;5031873;28;20079;-78
2021/01/13 09:35:39;;;;;;;17.65;3.08;;;2.80;99.90;;;;;;5032938;28;20040;-77
2021/01/13 09:38:09;;;;;;;15.93;2.90;;;2.80;99.90;;;;;;5037725;28;20032;-81
2021/01/13 09:40:55;;;;;;;17.48;3.50;;;2.80;99.90;;;;;;5036329;28;20032;-79
2021/01/13 09:43:30;;;;;;;6.57;2.55;;;2.90;99.90;;;;;;5039080;28;20068;-78
2021/01/13 09:45:58;;;;;;;12.35;3.70;;;2.90;99.90;;;;;;5035324;28;20629;-77
2021/01/13 09:48:25;;;;;;;8.95;2.60;;;2.90;99.90;;;;;;5042524;28;20095;-78
2021/01/13 09:51:03;;;;;;;11.57;3.00;;;2.90;99.90;;;;;;5038945;28;20033;-77
2021/01/13 09:53:47;;;;;;;10.02;2.40;;;2.90;99.90;;;;;;5039822;28;20041;-77
2021/01/13 09:56:12;;;;;;;14.73;2.50;;;3.00;99.90;;;;;;5034091;28;20342;-79
2021/01/13 09:58:48;;;;;;;7.38;2.95;;;3.00;99.90;;;;;;5037094;28;20060;-77
2021/01/13 10:01:19;;;;;;;6.90;2.72;;;3.00;99.90;;;;;;5028956;28;20076;-77
2021/01/13 10:03:49;;;;;;;9.45;2.67;;;3.00;99.90;;;;;;5032412;28;20742;-77
2021/01/13 10:06:20;;;;;;;6.75;2.78;;;3.10;99.90;;;;;;5029988;28;20134;-77
2021/01/13 10:08:48;;;;;;;14.52;3.20;;;3.10;99.90;;;;;;5030613;28;20529;-77
2021/01/13 10:11:15;;;;;;;12.13;2.50;;;3.10;99.90;;;;;;5031803;28;20060;-77
2021/01/13 10:13:42;;;;;;;10.80;3.00;;;3.20;99.90;;;;;;5033971;28;20063;-77
2021/01/13 10:16:09;;;;;;;4.47;2.05;;;3.10;99.90;;;;;;5032947;28;20039;-78
2021/01/13 10:18:48;;;;;;;13.70;2.28;;;3.20;99.80;;;;;;5050799;28;20036;-78
2021/01/13 10:21:14;;;;;;;6.15;2.13;;;3.30;99.90;;;;;;5050973;28;21122;-77
2021/01/13 10:23:42;;;;;;;13.30;2.95;;;3.30;99.90;;;;;;5037311;28;20564;-79
2021/01/13 10:26:09;;;;;;;10.88;2.50;;;3.40;99.90;;;;;;5040692;28;20529;-79
2021/01/13 10:28:36;;;;;;;5.93;2.00;;;3.60;99.90;;;;;;5043155;28;20556;-79
2021/01/13 10:31:03;;;;;;;10.73;2.55;;;3.60;98.80;;;;;;5037698;28;20053;-80
2021/01/13 10:33:48;;;;;;;9.57;2.45;;;3.70;98.60;;;;;;5042194;28;20052;-80
2021/01/13 10:36:34;;;;;;;12.35;2.92;;;3.90;98.40;;;;;;5038661;28;20339;-77
2021/01/13 10:39:23;;;;;;;10.38;2.75;;;3.90;97.10;;;;;;5040537;28;20049;-79
2021/01/13 10:41:54;;;;;;;17.35;2.67;;;3.80;95.90;;;;;;5043221;28;20037;-79
2021/01/13 10:44:25;;;;;;;6.35;2.08;;;3.90;96.50;;;;;;5039783;28;20786;-78
2021/01/13 10:46:58;;;;;;;11.02;2.83;;;3.80;95.80;;;;;;5044294;28;20052;-78
2021/01/13 10:49:41;;;;;;;10.55;2.63;;;3.70;95.70;;;;;;5044191;28;20805;-79
2021/01/13 10:52:17;;;;;;;4.70;2.13;;;3.80;97.50;;;;;;5042195;28;20037;-79
2021/01/13 10:54:44;;;;;;;8.20;2.72;;;3.90;97.90;;;;;;5042957;28;20091;-80
2021/01/13 10:57:12;;;;;;;6.57;1.95;;;4.00;97.40;;;;;;5042389;28;20104;-79
2021/01/13 10:59:39;;;;;;;11.38;2.03;;;4.10;96.00;;;;;;5044265;28;20044;-82
2021/01/13 11:02:09;;;;;;;6.82;2.25;;;4.20;96.40;;;;;;5044100;28;20029;-81
2021/01/13 11:04:39;;;;;;;12.45;2.50;;;4.30;95.40;;;;;;5042428;28;20112;-82
2021/01/13 11:07:19;;;;;;;22.45;2.45;;;4.40;94.80;;;;;;5042621;28;20516;-82
2021/01/13 11:09:51;;;;;;;6.22;1.98;;;4.50;94.70;;;;;;5043928;28;20060;-81
2021/01/13 11:12:22;;;;;;;12.00;2.40;;;4.30;93.00;;;;;;5044252;28;20029;-81
2021/01/13 11:14:50;;;;;;;11.98;2.38;;;4.50;94.40;;;;;;5042794;28;20082;-80
2021/01/13 11:17:20;;;;;;;7.00;2.30;;;4.60;93.20;;;;;;5043314;28;20069;-78
2021/01/13 11:19:55;;;;;;;13.48;2.17;;;4.60;91.60;;;;;;5043419;28;20288;-79
2021/01/13 11:22:44;;;;;;;9.75;1.73;;;4.70;91.70;;;;;;5043196;28;20045;-79
2021/01/13 11:25:19;;;;;;;12.32;2.38;;;4.90;91.10;;;;;;5041589;28;20229;-79
2021/01/13 11:27:56;;;;;;;11.38;2.22;;;4.90;91.40;;;;;;5039372;28;20060;-79
2021/01/13 11:30:22;;;;;;;12.07;1.98;;;4.90;90.90;;;;;;5056106;28;20060;-78
2021/01/13 11:32:57;;;;;;;3.15;1.30;;;4.80;89.90;;;;;;5040957;28;20035;-79
2021/01/13 11:35:27;;;;;;;6.25;1.85;;;4.80;90.70;;;;;;5036610;28;20102;-80
2021/01/13 11:38:06;;;;;;;9.38;1.58;;;4.80;88.60;;;;;;5035463;28;20037;-82
2021/01/13 11:40:46;;;;;;;7.18;1.60;;;4.90;90.10;;;;;;5034324;28;20072;-80
2021/01/13 11:43:46;;;;;;;12.00;2.30;;;4.90;90.20;;;;;;5044538;28;20032;-82
2021/01/13 11:46:43;;;;;;;5.03;1.98;;;4.90;89.10;;;;;;5041276;28;20033;-81
2021/01/13 11:49:14;;;;;;;6.57;1.95;;;4.80;88.30;;;;;;5039833;28;20820;-80
2021/01/13 11:51:43;;;;;;;9.05;2.15;;;4.90;89.00;;;;;;5043532;28;20486;-80
2021/01/13 11:54:09;;;;;;;9.60;2.35;;;4.90;87.80;;;;;;5041154;28;20064;-81
2021/01/13 11:56:35;;;;;;;6.68;2.50;;;4.80;88.30;;;;;;5044171;28;20033;-78
2021/01/13 11:59:01;;;;;;;14.75;3.10;;;4.80;88.50;;;;;;5042503;28;20044;-79
2021/01/13 12:01:27;;;;;;;9.80;3.25;;;5.00;90.00;;;;;;5057304;28;20029;-78
2021/01/13 12:04:04;;;;;;;7.53;2.30;;;5.00;88.10;;;;;;5040645;28;20041;-78
2021/01/13 12:06:30;;;;;;;10.68;2.28;;;4.90;85.40;;;;;;5042603;28;20083;-77
2021/01/13 12:08:57;;;;;;;10.93;2.05;;;4.90;85.70;;;;;;5041911;28;20106;-77
2021/01/13 12:11:23;;;;;;;12.85;2.72;;;4.80;86.40;;;;;;5043116;28;20406;-76
2021/01/13 12:13:49;;;;;;;9.70;1.73;;;4.80;85.30;;;;;;5041811;28;20614;-76
2021/01/13 12:16:19;;;;;;;3.20;1.30;;;4.80;84.10;;;;;;5042222;28;20186;-79
2021/01/13 12:18:47;;;;;;;4.20;1.52;;;4.90;83.70;;;;;;5045145;28;20041;-79
2021/01/13 12:21:13;;;;;;;6.95;1.08;;;4.80;82.40;;;;;;5042983;28;20105;-80
2021/01/13 12:23:42;;;;;;;8.95;1.10;;;4.80;83.90;;;;;;5044410;28;20051;-78
2021/01/13 12:26:32;;;;;;;13.27;1.52;;;4.80;84.00;;;;;;5041538;28;20037;-80
2021/01/13 12:29:01;;;;;;;4.00;1.42;;;4.90;83.20;;;;;;5035902;28;20045;-78
2021/01/13 12:31:38;;;;;;;2.15;1.02;;;4.80;83.30;;;;;;5040895;28;20525;-79
2021/01/13 12:34:10;;;;;;;8.27;1.80;;;4.80;80.40;;;;;;5035423;28;20620;-77
2021/01/13 12:36:38;;;;;;;8.85;2.55;;;4.80;83.00;;;;;;5042434;28;20067;-78
2021/01/13 12:39:05;;;;;;;4.65;1.00;;;4.80;81.30;;;;;;5038255;28;20401;-78
2021/01/13 12:41:33;;;;;;;4.72;0.85;;;5.00;83.20;;;;;;5040347;28;20721;-77
2021/01/13 12:44:03;;;;;;;8.25;0.88;;;4.90;79.00;;;;;;5038842;28;20068;-78
2021/01/13 12:46:30;;;;;;;5.85;1.00;;;4.90;79.90;;;;;;5041542;28;20041;-76
2021/01/13 12:48:57;;;;;;;10.52;1.13;;;4.80;78.90;;;;;;5042783;28;20085;-75
2021/01/13 12:51:23;;;;;;;3.90;0.90;;;4.90;79.40;;;;;;5042414;28;20041;-76
2021/01/13 12:53:52;;;;;;;8.60;1.20;;;5.00;79.30;;;;;;5042554;28;20048;-75
2021/01/13 12:56:41;;;;;;;5.63;0.85;;;5.00;78.30;;;;;;5042416;28;20744;-77
2021/01/13 12:59:07;;;;;;;8.18;1.27;;;5.00;78.20;;;;;;5041064;28;20037;-78
2021/01/13 13:01:39;;;;;;;3.72;0.80;;;4.90;76.10;;;;;;5041466;28;20268;-80
2021/01/13 13:04:06;;;;;;;4.95;0.93;;;5.00;76.40;;;;;;5035397;28;20086;-78
2021/01/13 13:06:34;;;;;;;2.47;0.60;;;5.10;75.80;;;;;;5039372;28;20037;-77
2021/01/13 13:09:02;;;;;;;2.80;0.70;;;5.20;75.40;;;;;;5039338;28;20040;-77
2021/01/13 13:11:28;;;;;;;8.48;1.13;;;5.10;74.30;;;;;;5037732;28;20183;-77
2021/01/13 13:13:58;;;;;;;5.07;0.80;;;5.00;73.30;;;;;;5036049;28;20044;-77
2021/01/13 13:16:25;;;;;;;4.53;0.80;;;4.90;73.70;;;;;;5038394;28;20033;-78
2021/01/13 13:18:55;;;;;;;5.57;1.13;;;4.90;73.10;;;;;;5035954;28;20041;-77